Time;durP1;ratioP1;P1;durP2;ratioP2;P2;SDS_P1;SDS_P2;PMS_P1;PMS_P2;Temp;Humidity;BMP_temperature;BMP_pressure;BME280_temperature;BME280_humidity;BME280_pressure;Samples;Min_cycle;Max_cycle;Signal;HPM_P1;HPM_P2
2023/04/30 00:02:17;;;;;;;9.45;7.53;;;;;;;8.42;70.42;100951.78;5052016;28;20068;-62
2023/04/30 00:04:44;;;;;;;9.75;6.63;;;;;;;8.40;70.25;100959.53;5034789;28;20053;-61
2023/04/30 00:07:11;;;;;;;10.55;7.10;;;;;;;8.30;69.25;100954.03;5035361;28;20053;-61
2023/04/30 00:09:39;;;;;;;10.02;7.22;;;;;;;8.20;70.37;100960.47;5035735;28;20061;-61
2023/04/30 00:12:06;;;;;;;9.23;7.47;;;;;;;8.18;69.34;100959.94;5035671;28;20057;-61
2023/04/30 00:14:33;;;;;;;8.63;6.43;;;;;;;8.19;70.32;100966.28;5035201;28;20479;-61
2023/04/30 00:17:00;;;;;;;8.13;6.50;;;;;;;8.19;69.87;100960.75;5034831;28;20049;-61
2023/04/30 00:19:29;;;;;;;10.02;7.30;;;;;;;8.16;68.87;100955.78;5051814;28;20075;-62
2023/04/30 00:21:56;;;;;;;9.18;7.22;;;;;;;8.10;70.13;100958.56;5055378;28;20409;-61
2023/04/30 00:24:24;;;;;;;9.38;6.82;;;;;;;8.05;69.04;100961.38;5054802;28;20053;-61
2023/04/30 00:26:51;;;;;;;8.10;7.28;;;;;;;7.95;68.80;100958.66;5053087;28;20049;-61
2023/04/30 00:29:18;;;;;;;9.80;7.88;;;;;;;7.85;69.30;100961.47;5040810;28;20064;-61
2023/04/30 00:31:45;;;;;;;8.82;7.32;;;;;;;7.77;69.68;100970.38;5050791;28;20048;-61
2023/04/30 00:34:13;;;;;;;11.63;7.35;;;;;;;7.75;69.85;100961.50;5049931;28;20052;-61
2023/04/30 00:36:41;;;;;;;8.90;7.72;;;;;;;7.77;69.93;100973.16;5055247;28;20060;-61
2023/04/30 00:39:10;;;;;;;9.60;7.68;;;;;;;7.76;69.42;100972.34;5055269;28;20056;-61
2023/04/30 00:41:38;;;;;;;8.68;6.90;;;;;;;7.71;70.77;100973.19;5054672;28;20059;-61
2023/04/30 00:44:05;;;;;;;12.07;6.93;;;;;;;7.70;70.27;100962.38;5054930;28;20067;-60
2023/04/30 00:46:33;;;;;;;9.82;7.00;;;;;;;7.65;69.41;100966.00;5054811;28;20060;-61
2023/04/30 00:49:03;;;;;;;8.30;6.90;;;;;;;7.56;70.98;100973.25;5049611;28;20053;-61
2023/04/30 00:51:32;;;;;;;10.40;7.35;;;;;;;7.50;70.22;100975.19;5054925;28;20486;-61
2023/04/30 00:54:02;;;;;;;8.27;6.78;;;;;;;7.46;70.97;100973.28;5054643;28;20060;-61
2023/04/30 00:56:31;;;;;;;9.85;6.65;;;;;;;7.43;69.77;100968.28;5054559;28;20052;-61
2023/04/30 00:58:59;;;;;;;7.43;6.30;;;;;;;7.36;70.64;100967.75;5054608;28;20057;-62
2023/04/30 01:01:27;;;;;;;10.23;6.60;;;;;;;7.37;70.54;100973.03;5054955;28;20053;-61
2023/04/30 01:03:55;;;;;;;9.18;7.18;;;;;;;7.35;69.85;100972.47;5050813;28;20525;-61
2023/04/30 01:06:22;;;;;;;9.82;6.95;;;;;;;7.23;71.36;100972.75;5054689;28;20052;-61
2023/04/30 01:08:50;;;;;;;10.00;7.13;;;;;;;7.17;70.32;100976.66;5054643;28;20060;-61
2023/04/30 01:11:28;;;;;;;9.43;7.43;;;;;;;7.21;70.70;100974.97;5054621;28;20060;-61
2023/04/30 01:14:04;;;;;;;9.35;7.38;;;;;;;7.22;71.26;100971.09;5053727;28;20061;-60
2023/04/30 01:16:40;;;;;;;10.68;7.45;;;;;;;7.20;71.34;100970.56;5054463;28;20057;-61
2023/04/30 01:19:20;;;;;;;11.55;8.05;;;;;;;7.14;70.64;100966.13;5050418;28;20390;-61
2023/04/30 01:21:49;;;;;;;10.20;7.15;;;;;;;7.06;70.55;100970.28;5053933;28;20048;-61
2023/04/30 01:24:37;;;;;;;9.63;7.75;;;;;;;7.03;71.61;100965.28;5054304;28;20064;-61
2023/04/30 01:27:23;;;;;;;12.75;8.00;;;;;;;6.99;71.64;100964.22;5054531;28;20498;-61
2023/04/30 01:29:53;;;;;;;10.48;7.70;;;;;;;6.96;71.53;100958.41;5054390;28;20049;-61
2023/04/30 01:32:20;;;;;;;12.18;8.93;;;;;;;6.92;71.49;100969.19;5052989;28;20049;-61
2023/04/30 01:34:48;;;;;;;10.18;7.68;;;;;;;6.90;71.02;100966.69;5049274;28;20041;-61
2023/04/30 01:37:22;;;;;;;10.00;7.47;;;;;;;6.89;71.64;100967.00;5054021;28;20406;-61
2023/04/30 01:39:59;;;;;;;9.57;7.72;;;;;;;6.85;71.37;100975.00;5053821;28;20045;-61
2023/04/30 01:42:32;;;;;;;10.27;7.43;;;;;;;6.85;71.22;100966.72;5053631;28;20061;-61
2023/04/30 01:45:13;;;;;;;11.57;7.18;;;;;;;6.84;71.33;100978.88;5034394;28;20050;-61
2023/04/30 01:47:53;;;;;;;10.38;7.68;;;;;;;6.83;71.35;100973.63;5033793;28;20057;-61
2023/04/30 01:50:28;;;;;;;9.90;7.70;;;;;;;6.74;71.05;100972.50;5034102;28;20054;-61
2023/04/30 01:53:00;;;;;;;10.73;7.18;;;;;;;6.73;70.80;100977.22;5033692;28;20057;-61
2023/04/30 01:55:33;;;;;;;8.52;6.40;;;;;;;6.70;71.51;100973.06;5033694;28;20115;-61
2023/04/30 01:58:03;;;;;;;9.35;7.10;;;;;;;6.68;70.78;100974.47;5033780;28;20509;-61
2023/04/30 02:00:31;;;;;;;10.40;7.65;;;;;;;6.63;71.46;100977.22;5033688;28;20060;-61
2023/04/30 02:02:59;;;;;;;12.80;7.90;;;;;;;6.58;71.60;100980.00;5036818;28;20415;-61
2023/04/30 02:05:26;;;;;;;9.55;7.78;;;;;;;6.50;71.21;100973.06;5052147;28;20056;-61
2023/04/30 02:07:54;;;;;;;13.30;8.82;;;;;;;6.47;71.18;100973.63;5053546;28;20386;-61
2023/04/30 02:10:22;;;;;;;9.57;7.70;;;;;;;6.46;71.23;100978.28;5053545;28;20497;-61
2023/04/30 02:12:49;;;;;;;11.95;8.05;;;;;;;6.42;71.39;100971.66;5053296;28;20053;-62
2023/04/30 02:15:17;;;;;;;9.95;8.10;;;;;;;6.43;71.71;100964.19;5053189;28;20048;-61
2023/04/30 02:17:45;;;;;;;8.77;7.45;;;;;;;6.45;71.64;100975.81;5051014;28;20079;-61
2023/04/30 02:20:13;;;;;;;12.63;8.00;;;;;;;6.41;70.88;100972.78;5034600;28;20053;-61
2023/04/30 02:22:40;;;;;;;9.02;7.45;;;;;;;6.35;70.94;100973.88;5033183;28;20053;-61
2023/04/30 02:25:08;;;;;;;12.00;8.77;;;;;;;6.28;71.24;100982.44;5033390;28;20409;-61
2023/04/30 02:27:35;;;;;;;11.55;8.70;;;;;;;6.28;71.43;100976.06;5033182;28;20049;-61
2023/04/30 02:30:03;;;;;;;11.93;9.18;;;;;;;6.22;71.63;100977.16;5033042;28;20054;-61
2023/04/30 02:32:30;;;;;;;12.70;9.77;;;;;;;6.14;71.79;100986.00;5032498;28;20064;-61
2023/04/30 02:34:59;;;;;;;14.75;10.48;;;;;;;6.10;71.76;100986.50;5048086;28;20056;-61
2023/04/30 02:37:26;;;;;;;13.15;9.02;;;;;;;6.08;72.23;100988.72;5051388;28;20068;-61
2023/04/30 02:39:54;;;;;;;14.18;9.25;;;;;;;6.07;72.10;100992.59;5052837;28;20409;-61
2023/04/30 02:42:21;;;;;;;11.80;8.75;;;;;;;6.07;72.04;100987.06;5052996;28;20049;-61
2023/04/30 02:44:48;;;;;;;11.95;9.45;;;;;;;6.12;71.95;100988.19;5052721;28;20055;-61
2023/04/30 02:47:16;;;;;;;12.32;9.43;;;;;;;6.13;71.91;100990.66;5052843;28;20049;-61
2023/04/30 02:49:43;;;;;;;12.70;10.60;;;;;;;6.15;71.64;100987.63;5048344;28;20060;-61
2023/04/30 02:52:11;;;;;;;11.60;9.18;;;;;;;6.09;71.77;100989.56;5052144;28;20068;-61
2023/04/30 02:54:39;;;;;;;11.77;9.25;;;;;;;6.11;71.74;100981.84;5052507;28;20048;-61
2023/04/30 02:57:06;;;;;;;10.73;8.05;;;;;;;6.10;71.65;100983.75;5052987;28;20056;-61
2023/04/30 02:59:34;;;;;;;13.10;9.50;;;;;;;6.06;71.27;100981.81;5052523;28;20064;-61
2023/04/30 03:02:01;;;;;;;16.27;10.57;;;;;;;5.95;71.80;100988.41;5052740;28;20060;-58
2023/04/30 03:04:28;;;;;;;12.68;9.57;;;;;;;5.85;71.95;100989.16;5048356;28;20430;-58
2023/04/30 03:06:55;;;;;;;12.15;9.38;;;;;;;5.84;72.01;100990.28;5049350;28;20045;-58
2023/04/30 03:09:24;;;;;;;12.63;9.55;;;;;;;5.82;71.97;100986.94;5052308;28;20053;-58
2023/04/30 03:11:51;;;;;;;12.02;9.68;;;;;;;5.81;71.65;100990.81;5051459;28;20474;-58
2023/04/30 03:14:18;;;;;;;13.68;10.20;;;;;;;5.80;71.59;100987.22;5052179;28;20065;-58
2023/04/30 03:16:45;;;;;;;11.05;9.07;;;;;;;5.77;71.73;100990.50;5052005;28;20049;-58
2023/04/30 03:19:13;;;;;;;13.18;9.57;;;;;;;5.73;72.09;100983.03;5048519;28;20053;-58
2023/04/30 03:21:40;;;;;;;10.82;9.25;;;;;;;5.71;71.96;100980.53;5052110;28;20422;-57
2023/04/30 03:24:08;;;;;;;13.05;9.25;;;;;;;5.70;71.79;100978.88;5052236;28;20414;-58
2023/04/30 03:26:36;;;;;;;13.93;10.35;;;;;;;5.67;72.26;100982.19;5052112;28;20053;-58
2023/04/30 03:29:04;;;;;;;15.57;10.15;;;;;;;5.68;72.10;100984.66;5052122;28;20057;-57
2023/04/30 03:31:31;;;;;;;11.43;9.10;;;;;;;5.73;72.04;100986.63;5052373;28;20060;-58
2023/04/30 03:33:58;;;;;;;12.93;8.93;;;;;;;5.72;71.90;100987.72;5047840;28;20048;-58
2023/04/30 03:36:26;;;;;;;12.23;9.43;;;;;;;5.66;72.13;100984.09;5052209;28;20099;-58
2023/04/30 03:38:53;;;;;;;13.13;9.23;;;;;;;5.62;72.18;100980.22;5051913;28;20049;-58
2023/04/30 03:41:20;;;;;;;13.25;9.05;;;;;;;5.57;72.59;100982.97;5051935;28;20060;-58
2023/04/30 03:43:49;;;;;;;12.70;9.18;;;;;;;5.56;72.46;100974.94;5052035;28;20049;-58
2023/04/30 03:46:16;;;;;;;15.15;10.88;;;;;;;5.57;72.89;100971.91;5051868;28;20078;-58
2023/04/30 03:48:43;;;;;;;15.35;10.65;;;;;;;5.54;72.66;100974.38;5043103;28;20508;-58
2023/04/30 03:51:11;;;;;;;11.75;9.32;;;;;;;5.51;73.06;100978.50;5051063;28;20405;-58
2023/04/30 03:53:38;;;;;;;12.85;9.95;;;;;;;5.49;72.56;100969.66;5051622;28;20128;-58
2023/04/30 03:56:07;;;;;;;14.55;10.48;;;;;;;5.52;72.43;100974.63;5051983;28;20075;-58
2023/04/30 03:58:34;;;;;;;14.23;10.38;;;;;;;5.52;72.57;100971.03;5053062;28;20057;-58
2023/04/30 04:01:03;;;;;;;17.17;10.98;;;;;;;5.50;72.63;100985.13;5055752;28;20408;-58
2023/04/30 04:03:31;;;;;;;13.02;8.98;;;;;;;5.49;72.46;100972.41;5051744;28;20071;-58
2023/04/30 04:05:58;;;;;;;16.08;10.80;;;;;;;5.55;72.29;100984.34;5055778;28;20053;-58
2023/04/30 04:08:25;;;;;;;14.05;10.40;;;;;;;5.54;72.00;100982.66;5055548;28;20068;-58
2023/04/30 04:10:53;;;;;;;13.05;10.18;;;;;;;5.52;72.07;100980.16;5055719;28;20049;-58
2023/04/30 04:13:20;;;;;;;13.63;10.38;;;;;;;5.52;71.96;100979.31;5055513;28;20072;-58
2023/04/30 04:15:47;;;;;;;11.23;8.82;;;;;;;5.52;71.99;100982.09;5055504;28;20402;-58
2023/04/30 04:18:17;;;;;;;14.27;9.68;;;;;;;5.51;72.15;100983.22;5051525;28;20469;-58
2023/04/30 04:20:45;;;;;;;14.60;10.25;;;;;;;5.51;71.84;100986.78;5055521;28;20057;-58
2023/04/30 04:23:12;;;;;;;14.68;10.30;;;;;;;5.51;71.85;100991.50;5055371;28;20052;-58
2023/04/30 04:25:40;;;;;;;15.68;11.70;;;;;;;5.50;72.08;101004.47;5055446;28;20053;-58
2023/04/30 04:28:07;;;;;;;14.00;10.07;;;;;;;5.51;71.76;101021.88;5054916;28;20121;-58
2023/04/30 04:30:35;;;;;;;16.55;11.93;;;;;;;5.55;71.65;101012.78;5055459;28;20064;-58
2023/04/30 04:33:02;;;;;;;16.88;11.88;;;;;;;5.56;71.82;101002.56;5050966;28;20053;-58
2023/04/30 04:35:31;;;;;;;12.23;9.38;;;;;;;5.62;71.43;101009.78;5055478;28;20057;-57
2023/04/30 04:37:59;;;;;;;13.48;9.65;;;;;;;5.62;71.24;101007.84;5055188;28;20056;-58
2023/04/30 04:40:26;;;;;;;17.02;12.13;;;;;;;5.57;71.32;101018.88;5055303;28;20059;-58
2023/04/30 04:42:54;;;;;;;13.65;10.13;;;;;;;5.59;71.12;101022.22;5054502;28;20049;-58
2023/04/30 04:45:22;;;;;;;12.77;9.82;;;;;;;5.65;71.15;101018.38;5055062;28;20060;-58
2023/04/30 04:47:50;;;;;;;16.02;12.05;;;;;;;5.68;70.83;101017.81;5052315;28;20049;-58
2023/04/30 04:50:18;;;;;;;14.27;10.38;;;;;;;5.73;70.89;101010.66;5053186;28;20056;-57
2023/04/30 04:52:46;;;;;;;11.73;9.15;;;;;;;5.82;70.82;101017.38;5054110;28;20053;-58
2023/04/30 04:55:14;;;;;;;13.50;9.68;;;;;;;5.84;70.51;101006.88;5054770;28;20057;-58
2023/04/30 04:57:42;;;;;;;12.02;8.98;;;;;;;5.86;70.54;101013.78;5054921;28;20474;-58
2023/04/30 05:00:10;;;;;;;11.80;9.50;;;;;;;5.89;70.36;101007.69;5054617;28;20529;-58
2023/04/30 05:02:38;;;;;;;13.35;10.18;;;;;;;5.90;70.41;101008.56;5048955;28;20517;-58
2023/04/30 05:05:06;;;;;;;14.85;11.32;;;;;;;5.98;70.97;101007.22;5050587;28;20049;-58
2023/04/30 05:07:34;;;;;;;14.70;10.80;;;;;;;6.02;70.74;101014.69;5038624;28;20049;-58
2023/04/30 05:10:03;;;;;;;15.70;10.05;;;;;;;6.19;70.63;101013.66;5033484;28;20514;-58
2023/04/30 05:12:30;;;;;;;16.42;11.05;;;;;;;6.25;70.50;101016.16;5034087;28;20509;-58
2023/04/30 05:14:58;;;;;;;15.60;10.40;;;;;;;6.35;70.61;101025.59;5034556;28;20060;-58
2023/04/30 05:17:25;;;;;;;14.38;10.15;;;;;;;6.35;70.19;101020.91;5038120;28;20049;-58
2023/04/30 05:19:53;;;;;;;14.98;10.40;;;;;;;6.49;69.97;101015.69;5052888;28;20053;-58
2023/04/30 05:22:20;;;;;;;12.73;9.48;;;;;;;6.56;70.97;101029.25;5054138;28;20072;-58
2023/04/30 05:24:48;;;;;;;11.88;9.23;;;;;;;6.63;70.57;101032.56;5054132;28;20068;-58
2023/04/30 05:27:16;;;;;;;11.75;9.40;;;;;;;6.66;70.68;101026.50;5053867;28;20053;-58
2023/04/30 05:29:44;;;;;;;12.63;9.23;;;;;;;6.78;69.60;101027.03;5053960;28;20049;-58
2023/04/30 05:32:11;;;;;;;13.18;9.32;;;;;;;6.85;69.63;101030.41;5050920;28;20498;-58
2023/04/30 05:34:38;;;;;;;11.40;9.13;;;;;;;6.94;70.38;101035.38;5050277;28;20135;-58
2023/04/30 05:37:05;;;;;;;12.23;9.95;;;;;;;7.00;70.28;101031.50;5053958;28;20056;-58
2023/04/30 05:39:33;;;;;;;11.23;9.00;;;;;;;7.01;70.30;101028.44;5053854;28;20379;-58
2023/04/30 05:42:01;;;;;;;11.27;8.98;;;;;;;7.12;69.24;101037.63;5054049;28;20056;-58
2023/04/30 05:44:30;;;;;;;11.63;9.60;;;;;;;7.24;69.29;101038.13;5048301;28;20061;-58
2023/04/30 05:46:57;;;;;;;10.35;8.82;;;;;;;7.39;69.39;101039.22;5054156;28;20482;-58
2023/04/30 05:49:24;;;;;;;11.35;9.35;;;;;;;7.49;69.80;101036.44;5035120;28;20053;-58
2023/04/30 05:51:52;;;;;;;14.25;10.60;;;;;;;7.57;69.68;101030.34;5033687;28;20529;-58
2023/04/30 05:54:19;;;;;;;11.07;9.52;;;;;;;7.67;69.07;101033.09;5040756;28;20056;-58
2023/04/30 05:56:46;;;;;;;12.65;9.65;;;;;;;7.77;70.46;101034.16;5048046;28;20056;-58
2023/04/30 05:59:13;;;;;;;14.05;10.02;;;;;;;7.84;69.77;101032.75;5049610;28;20053;-58
2023/04/30 06:01:42;;;;;;;13.25;11.20;;;;;;;7.93;69.85;101033.00;5053305;28;20049;-58
2023/04/30 06:04:10;;;;;;;12.80;10.45;;;;;;;8.04;70.70;101039.34;5038628;28;20057;-58
2023/04/30 06:06:38;;;;;;;14.27;11.25;;;;;;;8.12;70.10;101035.97;5033245;28;20064;-58
2023/04/30 06:09:05;;;;;;;13.77;11.77;;;;;;;8.24;71.01;101027.34;5037255;28;20053;-57
2023/04/30 06:11:32;;;;;;;15.48;12.52;;;;;;;8.33;69.73;101031.16;5045204;28;20060;-58
2023/04/30 06:14:00;;;;;;;15.20;12.05;;;;;;;8.44;70.22;101032.81;5032841;28;20102;-58
2023/04/30 06:16:27;;;;;;;13.30;11.25;;;;;;;8.61;71.02;101037.13;5033381;28;20054;-58
2023/04/30 06:18:56;;;;;;;14.38;11.77;;;;;;;8.74;70.99;101036.50;5035285;28;20049;-58
2023/04/30 06:21:24;;;;;;;14.95;10.88;;;;;;;8.86;70.33;101037.00;5032662;28;20073;-58
2023/04/30 06:23:52;;;;;;;16.00;12.20;;;;;;;8.99;70.69;101029.09;5033347;28;20053;-58
2023/04/30 06:26:19;;;;;;;14.02;10.85;;;;;;;9.20;69.86;101038.94;5032836;28;20502;-58
2023/04/30 06:28:47;;;;;;;14.82;12.05;;;;;;;9.29;70.60;101039.94;5033183;28;20046;-58
2023/04/30 06:31:14;;;;;;;16.27;13.30;;;;;;;9.51;69.95;101033.06;5032953;28;20064;-58
2023/04/30 06:33:41;;;;;;;17.73;13.07;;;;;;;9.64;70.86;101026.84;5041170;28;20064;-58
2023/04/30 06:36:10;;;;;;;16.00;13.02;;;;;;;9.86;70.19;101026.28;5053076;28;20052;-58
2023/04/30 06:38:37;;;;;;;15.68;12.07;;;;;;;10.05;69.52;101029.13;5052391;28;20049;-58
2023/04/30 06:41:05;;;;;;;15.23;11.77;;;;;;;10.11;69.39;101024.34;5052955;28;20053;-58
2023/04/30 06:43:32;;;;;;;15.73;12.10;;;;;;;10.28;68.86;101023.84;5052610;28;20509;-58
2023/04/30 06:45:59;;;;;;;14.20;11.75;;;;;;;10.39;69.08;101025.38;5052942;28;20060;-58
2023/04/30 06:48:26;;;;;;;15.65;12.40;;;;;;;10.50;68.59;101012.97;5048833;28;20490;-58
2023/04/30 06:50:53;;;;;;;14.80;10.95;;;;;;;10.68;68.14;101013.28;5052706;28;20523;-58
2023/04/30 06:53:22;;;;;;;13.52;11.68;;;;;;;10.76;68.30;101012.59;5052260;28;20063;-58
2023/04/30 06:55:50;;;;;;;14.57;12.10;;;;;;;10.92;67.76;101011.22;5052732;28;20501;-58
2023/04/30 06:58:18;;;;;;;13.23;11.45;;;;;;;11.07;67.33;101001.78;5052262;28;20049;-58
2023/04/30 07:00:46;;;;;;;13.40;11.02;;;;;;;11.25;66.98;101013.19;5049054;28;20045;-58
2023/04/30 07:03:13;;;;;;;12.68;11.18;;;;;;;11.39;67.04;101014.03;5046955;28;20417;-58
2023/04/30 07:05:41;;;;;;;14.73;11.07;;;;;;;11.61;66.19;101009.72;5032796;28;20446;-57
2023/04/30 07:08:08;;;;;;;12.80;11.50;;;;;;;11.78;66.11;101008.00;5032903;28;20060;-58
2023/04/30 07:10:37;;;;;;;13.10;10.05;;;;;;;11.96;65.56;101011.03;5032723;28;20053;-57
2023/04/30 07:13:04;;;;;;;14.05;11.05;;;;;;;12.18;64.29;101004.72;5032399;28;20495;-57
2023/04/30 07:15:31;;;;;;;12.80;10.68;;;;;;;12.77;64.15;101004.78;5032946;28;20050;-57
2023/04/30 07:17:59;;;;;;;12.63;10.13;;;;;;;13.29;61.41;101008.00;5036377;28;20050;-57
2023/04/30 07:20:26;;;;;;;10.45;9.10;;;;;;;13.58;59.13;101001.03;5052666;28;20055;-57
2023/04/30 07:22:54;;;;;;;11.10;9.07;;;;;;;14.05;57.47;100990.22;5052706;28;20068;-57
2023/04/30 07:25:21;;;;;;;11.32;8.38;;;;;;;14.77;56.58;100991.63;5052687;28;20068;-57
2023/04/30 07:27:51;;;;;;;9.30;8.30;;;;;;;15.54;54.49;100989.03;5052488;28;20049;-57
2023/04/30 07:30:19;;;;;;;10.30;8.35;;;;;;;16.26;52.63;100991.22;5052640;28;20080;-57
2023/04/30 07:32:47;;;;;;;11.43;9.05;;;;;;;16.86;50.17;100989.13;5048401;28;20056;-57
2023/04/30 07:35:14;;;;;;;9.23;8.23;;;;;;;17.81;48.82;100998.56;5056463;28;20053;-57
2023/04/30 07:37:42;;;;;;;9.48;6.88;;;;;;;18.69;47.04;100989.66;5055729;28;20057;-57
2023/04/30 07:40:12;;;;;;;9.30;7.15;;;;;;;19.58;44.39;100988.59;5054631;28;20072;-57
2023/04/30 07:42:40;;;;;;;8.85;7.25;;;;;;;20.53;43.59;100982.03;5056151;28;20568;-57
2023/04/30 07:45:10;;;;;;;8.05;6.90;;;;;;;21.59;41.34;100987.47;5053642;28;20053;-57
2023/04/30 07:47:37;;;;;;;8.43;6.85;;;;;;;22.54;38.90;100982.94;5049245;28;20075;-57
2023/04/30 07:50:05;;;;;;;7.60;6.45;;;;;;;23.53;37.11;100976.03;5056176;28;20053;-57
2023/04/30 07:52:32;;;;;;;7.53;6.53;;;;;;;24.28;36.10;100985.22;5055628;28;20045;-57
2023/04/30 07:54:59;;;;;;;7.13;6.43;;;;;;;24.98;33.95;100979.50;5047943;28;20064;-58
2023/04/30 07:57:27;;;;;;;6.68;5.97;;;;;;;25.94;32.65;100980.97;5054000;28;20086;-58
2023/04/30 07:59:54;;;;;;;6.85;6.15;;;;;;;26.64;31.11;100979.25;5049157;28;20071;-58
2023/04/30 08:02:23;;;;;;;7.78;6.53;;;;;;;26.95;31.05;100984.47;5036617;28;20057;-58
2023/04/30 08:04:50;;;;;;;6.65;5.95;;;;;;;27.76;30.22;100985.22;5035482;28;20443;-58
2023/04/30 08:07:17;;;;;;;6.82;6.13;;;;;;;28.29;28.21;100980.28;5053130;28;20059;-59
2023/04/30 08:09:44;;;;;;;6.55;5.85;;;;;;;29.35;27.36;100967.97;5055504;28;20049;-59
2023/04/30 08:12:12;;;;;;;6.93;6.20;;;;;;;29.81;26.69;100977.13;5055682;28;20049;-59
2023/04/30 08:14:39;;;;;;;6.00;5.40;;;;;;;30.28;25.25;100977.13;5055418;28;20064;-59
2023/04/30 08:17:06;;;;;;;6.03;5.30;;;;;;;30.83;24.64;100975.66;5051776;28;20061;-57
2023/04/30 08:19:35;;;;;;;6.15;5.60;;;;;;;31.84;23.79;100971.34;5055443;28;20398;-57
2023/04/30 08:22:02;;;;;;;6.30;5.63;;;;;;;32.41;22.49;100976.91;5055049;28;20072;-57
2023/04/30 08:24:29;;;;;;;6.30;5.70;;;;;;;32.51;22.21;100967.13;5055235;28;20057;-58
2023/04/30 08:26:57;;;;;;;6.45;5.70;;;;;;;32.83;21.98;100965.44;5055400;28;20410;-58
2023/04/30 08:29:25;;;;;;;5.60;5.10;;;;;;;32.96;21.51;100967.06;5055379;28;20056;-58
2023/04/30 08:31:52;;;;;;;4.57;4.15;;;;;;;33.60;21.05;100965.53;5051574;28;20406;-58
2023/04/30 08:34:19;;;;;;;4.80;4.30;;;;;;;34.46;19.91;100968.38;5055240;28;20057;-58
2023/04/30 08:36:48;;;;;;;4.57;4.18;;;;;;;35.19;20.06;100962.34;5054930;28;20053;-58
2023/04/30 08:39:15;;;;;;;;;;;;;;;35.60;18.79;100971.09;5041883;28;20053;-58
2023/04/30 08:41:47;;;;;;;3.88;3.58;;;;;;;36.05;18.87;100966.72;5050702;28;20297;-58
2023/04/30 08:44:14;;;;;;;5.68;4.82;;;;;;;36.34;18.37;100972.09;5055085;28;20371;-58
2023/04/30 08:46:43;;;;;;;5.18;4.65;;;;;;;37.43;17.67;100960.81;5049493;28;20068;-58
2023/04/30 08:49:10;;;;;;;;;;;;;;;37.31;17.21;100971.34;5055461;28;20048;-58
2023/04/30 08:51:37;;;;;;;5.05;4.63;;;;;;;37.92;17.19;100970.44;5054755;28;19920;-58
2023/04/30 08:54:06;;;;;;;5.65;4.70;;;;;;;38.92;16.71;100973.06;5054545;28;20057;-58
2023/04/30 08:56:34;;;;;;;5.22;4.40;;;;;;;39.91;15.86;100979.53;5054725;28;20386;-59
2023/04/30 08:59:01;;;;;;;5.10;4.70;;;;;;;40.22;14.72;100973.06;5043930;28;20046;-59
2023/04/30 09:01:30;;;;;;;4.78;4.30;;;;;;;40.46;14.71;100974.97;5034619;28;20464;-58
2023/04/30 09:03:57;;;;;;;4.20;3.80;;;;;;;41.52;14.64;100972.31;5054539;28;20507;-58
2023/04/30 09:06:26;;;;;;;4.13;3.72;;;;;;;41.42;14.31;100967.19;5052946;28;20486;-58
2023/04/30 09:08:53;;;;;;;;;;;;;;;41.35;13.93;100962.59;5054893;28;20060;-59
2023/04/30 09:11:23;;;;;;;4.87;3.23;;;;;;;42.10;14.15;100954.59;5054091;28;19921;-59
2023/04/30 09:13:52;;;;;;;2.92;2.63;;;;;;;42.32;13.08;100962.69;5034133;28;20476;-59
2023/04/30 09:16:20;;;;;;;4.43;3.33;;;;;;;42.90;12.93;100955.69;5034571;28;20057;-58
2023/04/30 09:18:49;;;;;;;4.32;2.88;;;;;;;43.14;12.07;100947.19;5033103;28;20429;-58
2023/04/30 09:21:17;;;;;;;3.67;2.80;;;;;;;42.47;12.58;100953.72;5033814;28;20407;-59
2023/04/30 09:24:00;;;;;;;3.00;2.42;;;;;;;41.99;12.69;100958.25;5039470;28;20053;-59
2023/04/30 09:26:32;;;;;;;2.85;2.50;;;;;;;41.56;13.03;100960.38;5032598;28;20440;-59
2023/04/30 09:29:00;;;;;;;2.65;2.38;;;;;;;41.46;12.81;100953.13;5034168;28;20050;-59
2023/04/30 09:31:27;;;;;;;3.05;2.45;;;;;;;41.14;13.74;100953.91;5032777;28;20510;-59
2023/04/30 09:33:55;;;;;;;2.80;2.40;;;;;;;41.88;12.79;100945.72;5053582;28;20409;-58
2023/04/30 09:36:22;;;;;;;2.25;1.90;;;;;;;42.25;11.95;100936.03;5054188;28;20474;-58
2023/04/30 09:38:49;;;;;;;2.60;2.40;;;;;;;42.58;12.38;100939.09;5054011;28;20414;-58
2023/04/30 09:41:25;;;;;;;3.42;2.47;;;;;;;42.57;12.60;100937.50;5052115;28;20053;-58
2023/04/30 09:43:53;;;;;;;3.90;3.50;;;;;;;43.59;12.30;100941.28;5053526;28;20521;-58
2023/04/30 09:46:22;;;;;;;3.45;3.05;;;;;;;43.27;12.43;100934.16;5053760;28;20406;-58
2023/04/30 09:48:57;;;;;;;3.78;3.47;;;;;;;42.83;13.46;100941.53;5046918;28;20049;-58
2023/04/30 09:51:25;;;;;;;4.10;3.05;;;;;;;43.86;12.57;100938.06;5053749;28;20057;-58
2023/04/30 09:53:53;;;;;;;;;;;;;;;43.69;11.97;100935.16;5054340;28;20057;-59
2023/04/30 09:56:22;;;;;;;4.15;3.58;;;;;;;44.12;11.80;100934.75;5053333;28;19928;-58
2023/04/30 09:58:52;;;;;;;3.00;2.70;;;;;;;44.27;12.36;100932.31;5053620;28;20060;-58
2023/04/30 10:01:22;;;;;;;4.53;3.13;;;;;;;44.78;11.96;100935.72;5053112;28;20433;-58
2023/04/30 10:03:50;;;;;;;2.75;2.55;;;;;;;45.15;11.31;100924.75;5049427;28;20064;-58
2023/04/30 10:06:20;;;;;;;3.58;2.20;;;;;;;45.40;11.26;100922.69;5053118;28;20056;-58
2023/04/30 10:08:51;;;;;;;3.03;2.20;;;;;;;45.34;11.50;100921.94;5053086;28;20426;-59
2023/04/30 10:11:20;;;;;;;2.60;2.40;;;;;;;45.72;10.94;100919.19;5053141;28;20060;-59
2023/04/30 10:13:54;;;;;;;2.95;2.35;;;;;;;46.27;10.28;100908.03;5052615;28;20049;-58
2023/04/30 10:16:32;;;;;;;2.80;2.13;;;;;;;46.00;10.50;100912.94;5053176;28;20056;-59
2023/04/30 10:19:05;;;;;;;2.55;2.03;;;;;;;46.44;10.13;100898.19;5050080;28;20052;-58
2023/04/30 10:21:33;;;;;;;1.88;1.42;;;;;;;45.71;10.85;100902.84;5053079;28;20060;-59
2023/04/30 10:24:01;;;;;;;2.00;1.80;;;;;;;46.15;10.13;100900.72;5052925;28;20053;-58
2023/04/30 10:26:30;;;;;;;2.28;1.50;;;;;;;45.34;10.52;100911.00;5052951;28;20048;-58
2023/04/30 10:29:00;;;;;;;1.90;1.70;;;;;;;45.86;10.87;100903.19;5052767;28;20049;-59
2023/04/30 10:31:30;;;;;;;3.53;2.70;;;;;;;46.15;10.63;100904.44;5050687;28;20057;-59
2023/04/30 10:34:07;;;;;;;2.65;1.80;;;;;;;46.56;10.38;100897.47;5050294;28;20053;-59
2023/04/30 10:36:40;;;;;;;3.17;2.63;;;;;;;46.83;10.00;100893.84;5053049;28;20064;-59
2023/04/30 10:39:08;;;;;;;2.45;2.03;;;;;;;46.64;10.50;100900.53;5052639;28;20060;-58
2023/04/30 10:41:35;;;;;;;4.13;2.15;;;;;;;46.73;10.13;100897.19;5052938;28;20053;-58
2023/04/30 10:44:04;;;;;;;3.05;2.45;;;;;;;47.11;10.12;100891.19;5052906;28;20413;-59
2023/04/30 10:46:34;;;;;;;3.50;2.50;;;;;;;46.91;10.24;100882.97;5050126;28;20053;-59
2023/04/30 10:49:02;;;;;;;2.97;2.35;;;;;;;46.41;10.90;100875.72;5049798;28;20068;-59
2023/04/30 10:51:53;;;;;;;4.20;2.58;;;;;;;46.83;10.23;100876.13;5052872;28;20056;-59
2023/04/30 10:54:25;;;;;;;2.70;2.50;;;;;;;46.98;9.99;100877.22;5049759;28;20064;-59
2023/04/30 10:56:55;;;;;;;2.67;2.05;;;;;;;47.02;10.54;100876.06;5052718;28;20052;-59
2023/04/30 10:59:23;;;;;;;3.35;2.90;;;;;;;47.01;10.63;100869.38;5052782;28;20060;-59
2023/04/30 11:01:59;;;;;;;2.85;2.47;;;;;;;47.50;10.32;100874.13;5049083;28;20052;-59
2023/04/30 11:04:26;;;;;;;4.22;2.70;;;;;;;47.50;10.42;100869.00;5044246;28;20053;-59
2023/04/30 11:07:07;;;;;;;3.25;2.30;;;;;;;47.66;10.03;100867.09;5038256;28;20065;-59
2023/04/30 11:09:40;;;;;;;4.32;2.78;;;;;;;47.66;9.52;100870.06;5055475;28;20477;-59
2023/04/30 11:12:13;;;;;;;4.20;2.30;;;;;;;46.94;10.43;100870.06;5056891;28;20063;-59
2023/04/30 11:14:42;;;;;;;3.55;2.13;;;;;;;47.34;9.95;100867.22;5056329;28;20056;-59
2023/04/30 11:17:13;;;;;;;4.00;2.50;;;;;;;47.74;9.70;100864.28;5052306;28;20057;-59
2023/04/30 11:19:48;;;;;;;3.20;2.65;;;;;;;46.75;10.13;100856.16;5045833;28;20486;-59
2023/04/30 11:22:21;;;;;;;2.78;2.42;;;;;;;46.57;10.24;100856.97;5037024;28;20065;-59
2023/04/30 11:24:52;;;;;;;2.92;2.38;;;;;;;46.14;10.42;100860.84;5036510;28;20414;-59
2023/04/30 11:27:21;;;;;;;3.13;2.70;;;;;;;46.08;10.33;100846.19;5036419;28;20153;-59
2023/04/30 11:29:49;;;;;;;3.25;2.65;;;;;;;45.65;10.63;100858.75;5036297;28;20061;-59
2023/04/30 11:32:18;;;;;;;4.22;2.42;;;;;;;45.42;11.26;100851.53;5037609;28;20133;-59